createdAt,value
2018-06-09T00:04:45.569Z,95263.1
2018-06-09T00:09:42.348Z,95215.1
2018-06-09T00:14:38.980Z,95260.2
2018-06-09T00:19:35.314Z,95254.1
2018-06-09T00:24:32.034Z,95254.3
2018-06-09T00:29:28.648Z,95252.4
2018-06-09T00:34:24.747Z,95251.1
2018-06-09T00:39:21.616Z,95245.5
2018-06-09T00:44:18.101Z,95235.8
2018-06-09T00:49:14.851Z,95235.4
2018-06-09T00:54:11.278Z,95229.3
2018-06-09T00:59:07.935Z,95225.3
2018-06-09T01:04:04.302Z,95222.8
2018-06-09T01:09:01.092Z,95224.7
2018-06-09T01:13:57.774Z,95215.9
2018-06-09T01:18:54.289Z,95206.1
2018-06-09T01:23:51.013Z,95205.9
2018-06-09T01:28:47.611Z,95195
2018-06-09T01:33:44.215Z,95188.1
2018-06-09T01:38:40.782Z,95192.4
2018-06-09T01:43:37.510Z,95199.1
2018-06-09T01:48:34.220Z,95190.6
2018-06-09T01:53:31.129Z,95196.2
2018-06-09T01:58:27.560Z,95192.6
2018-06-09T02:03:23.517Z,95185.3
2018-06-09T02:08:20.205Z,95169.2
2018-06-09T02:13:16.738Z,95172.3
2018-06-09T02:18:13.346Z,95170.2
2018-06-09T02:23:10.110Z,95169.3
2018-06-09T02:28:06.522Z,95180.5
2018-06-09T02:33:03.148Z,95177.9
2018-06-09T02:37:59.809Z,95165.5
2018-06-09T02:42:56.384Z,95169.3
2018-06-09T02:47:53.141Z,95165.8
2018-06-09T02:52:49.726Z,95162.5
2018-06-09T02:57:46.307Z,95160.1
2018-06-09T03:02:43.007Z,95151.9
2018-06-09T03:07:39.439Z,95141.3
2018-06-09T03:12:35.692Z,95139
2018-06-09T03:17:32.357Z,95129.3
2018-06-09T03:22:28.847Z,95138.9
2018-06-09T03:27:25.697Z,95140.5
2018-06-09T03:32:21.825Z,95142.2
2018-06-09T03:37:18.509Z,95133.2
2018-06-09T03:42:15.386Z,95145.7
2018-06-09T03:47:11.845Z,95146.3
2018-06-09T03:52:08.518Z,95157.4
2018-06-09T03:57:05.503Z,95142.8
2018-06-09T04:02:01.867Z,95170.5
2018-06-09T04:06:58.228Z,95169.2
2018-06-09T04:11:54.880Z,95162.5
2018-06-09T04:16:51.620Z,95175.3
2018-06-09T04:21:48.476Z,95178
2018-06-09T04:26:45.060Z,95185.3
2018-06-09T04:31:41.574Z,95183.4
2018-06-09T04:36:38.000Z,95158.7
2018-06-09T04:41:34.681Z,95183.9
2018-06-09T04:46:31.049Z,95189.7
2018-06-09T04:51:27.700Z,95188.9
2018-06-09T04:56:24.356Z,95196.4
2018-06-09T05:01:21.123Z,95097.6
2018-06-09T05:06:17.794Z,95184.1
2018-06-09T05:11:14.571Z,95186
2018-06-09T05:16:11.392Z,95188.4
2018-06-09T05:21:07.232Z,95188.6
2018-06-09T05:26:04.333Z,95189.4
2018-06-09T05:31:01.092Z,95186.5
2018-06-09T05:35:57.753Z,95188
2018-06-09T05:40:54.287Z,95184.9
2018-06-09T05:45:50.793Z,95186.6
2018-06-09T05:50:47.458Z,95186.6
2018-06-09T05:55:44.283Z,95186.2
2018-06-09T06:00:40.471Z,95191.9
2018-06-09T06:05:36.758Z,95174.6
2018-06-09T06:10:33.664Z,95176.3
2018-06-09T06:15:30.256Z,95176.3
2018-06-09T06:20:27.023Z,95190.5
2018-06-09T06:25:23.823Z,95165.8
2018-06-09T06:30:20.706Z,95153.5
2018-06-09T06:35:17.019Z,95150.4
2018-06-09T06:40:13.603Z,95150
2018-06-09T06:45:10.168Z,95143.8
2018-06-09T06:50:06.828Z,95133.4
2018-06-09T06:55:03.560Z,95202.4
2018-06-09T06:59:59.749Z,95124.8
2018-06-09T07:04:55.760Z,95198.3
2018-06-09T07:09:52.393Z,95029.2
2018-06-09T07:14:48.930Z,95102.6
2018-06-09T07:19:45.750Z,95172.1
2018-06-09T07:24:42.835Z,95167.8
2018-06-09T07:29:39.414Z,95095.9
2018-06-09T07:34:36.325Z,95087.6
2018-06-09T07:39:33.058Z,94999.2
2018-06-09T07:44:29.576Z,95083.9
2018-06-09T07:49:26.028Z,95080.9
2018-06-09T07:54:22.715Z,95082.4
2018-06-09T07:59:19.308Z,95050.4
2018-06-09T08:04:16.138Z,94988
2018-06-09T08:09:12.435Z,95072.6
2018-06-09T08:14:09.281Z,95061.6
2018-06-09T08:19:05.611Z,95061.4
2018-06-09T08:24:02.593Z,94963.6
2018-06-09T08:28:59.528Z,95048.6
2018-06-09T08:33:55.792Z,95043.3
2018-06-09T08:38:52.574Z,95042.6
2018-06-09T08:43:48.963Z,94963.7
2018-06-09T08:48:45.114Z,95114.6
2018-06-09T08:53:42.067Z,94967
2018-06-09T08:58:38.541Z,95055
2018-06-09T09:03:35.273Z,94974.2
2018-06-09T09:08:31.635Z,95025.5
2018-06-09T09:13:30.244Z,95023.6
2018-06-09T09:18:26.494Z,94933.9
2018-06-09T09:23:23.083Z,94929.7
2018-06-09T09:28:19.941Z,95004
2018-06-09T09:33:16.005Z,94994.1
2018-06-09T09:38:12.812Z,94907
2018-06-09T09:43:09.114Z,94987.6
2018-06-09T09:48:05.992Z,94980.8
2018-06-09T09:53:03.661Z,94977
2018-06-09T09:58:01.408Z,94967.3
2018-06-09T10:02:59.824Z,94877.9
2018-06-09T10:07:56.558Z,94961.2
2018-06-09T10:12:52.800Z,94958.2
2018-06-09T10:17:50.195Z,94926.6
2018-06-09T10:22:45.030Z,94960.1
2018-06-09T10:27:41.082Z,94958.9
2018-06-09T10:32:37.554Z,94962.9
2018-06-09T10:37:34.531Z,94946.2
2018-06-09T10:42:31.399Z,94937.5
2018-06-09T10:47:28.146Z,94928.8
2018-06-09T10:52:25.032Z,94928.1
2018-06-09T10:57:22.080Z,94915.6
2018-06-09T11:02:18.925Z,94919.2
2018-06-09T11:07:15.860Z,94913.5
2018-06-09T11:12:12.643Z,94832.6
2018-06-09T11:17:09.263Z,94896.8
2018-06-09T11:22:06.350Z,94902.5
2018-06-09T11:27:03.122Z,94907.7
2018-06-09T11:31:59.707Z,94915.4
2018-06-09T11:36:56.090Z,94916.1
2018-06-09T11:41:52.652Z,94919.7
2018-06-09T11:46:49.360Z,94918.3
2018-06-09T11:51:46.140Z,94904.2
2018-06-09T11:56:43.042Z,94901.9
2018-06-09T12:01:39.611Z,94898.5
2018-06-09T12:06:36.159Z,94891.4
2018-06-09T12:11:33.346Z,94881.1
2018-06-09T12:16:29.688Z,94855
2018-06-09T12:21:26.233Z,94770.7
2018-06-09T12:26:22.958Z,94837.7
2018-06-09T12:31:19.779Z,94761.7
2018-06-09T12:36:16.246Z,94856
2018-06-09T12:41:12.970Z,94845
2018-06-09T12:46:09.534Z,94774.7
2018-06-09T12:51:06.009Z,94840.9
2018-06-09T12:56:02.505Z,94822.9
2018-06-09T13:00:59.405Z,94742.2
2018-06-09T13:05:55.848Z,94814.3
2018-06-09T13:10:52.675Z,94859.8
2018-06-09T13:15:49.332Z,94711.8
2018-06-09T13:20:46.037Z,94784.5
2018-06-09T13:25:42.899Z,94697.4
2018-06-09T13:30:39.551Z,94775.8
2018-06-09T13:35:36.372Z,94699.4
2018-06-09T13:40:33.168Z,94771.3
2018-06-09T13:45:29.927Z,94679.7
2018-06-09T13:50:26.586Z,94752.2
2018-06-09T13:55:23.310Z,94713.3
2018-06-09T14:00:20.282Z,94662.8
2018-06-09T14:05:16.995Z,94660
2018-06-09T14:10:13.457Z,94647.4
2018-06-09T14:15:09.877Z,94662
2018-06-09T14:20:06.516Z,94664.9
2018-06-09T14:25:03.314Z,94745.7
2018-06-09T14:29:59.870Z,94749.2
2018-06-09T14:34:56.315Z,94743.2
2018-06-09T14:39:53.285Z,94648
2018-06-09T14:44:49.829Z,94640.1
2018-06-09T14:49:45.977Z,94726.4
2018-06-09T14:54:42.652Z,94658.1
2018-06-09T14:59:39.348Z,94647.2
2018-06-09T15:04:36.043Z,94647.7
2018-06-09T15:09:31.813Z,94652.1
2018-06-09T15:14:28.336Z,94683.9
2018-06-09T15:19:25.299Z,94730.5
2018-06-09T15:24:21.703Z,94853.2
2018-06-09T15:29:17.904Z,94757.6
2018-06-09T15:34:14.121Z,94835.6
2018-06-09T15:39:10.425Z,94855.8
2018-06-09T15:44:06.832Z,94853.8
2018-06-09T15:49:03.346Z,94833
2018-06-09T15:53:59.481Z,94817
2018-06-09T15:58:56.085Z,94830.2
2018-06-09T16:03:52.594Z,94830
2018-06-09T16:08:49.176Z,94848.2
2018-06-09T16:13:45.627Z,94862.4
2018-06-09T16:18:41.833Z,94859.5
2018-06-09T16:23:38.387Z,94871.9
2018-06-09T16:28:34.958Z,94876.9
2018-06-09T16:33:31.659Z,94881.3
2018-06-09T16:38:28.294Z,94880.2
2018-06-09T16:43:23.901Z,94873.1
2018-06-09T16:48:20.591Z,94858.3
2018-06-09T16:53:17.485Z,94852.3
2018-06-09T16:58:13.956Z,94832.1
2018-06-09T17:03:10.029Z,94827.7
2018-06-09T17:08:06.194Z,94827.6
2018-06-09T17:13:02.958Z,94844.9
2018-06-09T17:17:59.829Z,94859.7
2018-06-09T17:22:55.924Z,94855.1
2018-06-09T17:27:52.219Z,94858.8
2018-06-09T17:32:48.686Z,94865.5
2018-06-09T17:37:45.241Z,94892
2018-06-09T17:42:44.290Z,94914.9
2018-06-09T17:47:39.843Z,94922.8
2018-06-09T17:52:36.279Z,94913
2018-06-09T17:57:36.153Z,94838.6
2018-06-09T18:02:31.954Z,94922.7
2018-06-09T18:07:28.316Z,94921.1
2018-06-09T18:12:24.970Z,94915.6
2018-06-09T18:17:21.533Z,94919.3
2018-06-09T18:22:18.139Z,94927.8
2018-06-09T18:27:14.756Z,94930.1
2018-06-09T18:32:11.357Z,94936.9
2018-06-09T18:37:07.538Z,94947.1
2018-06-09T18:42:03.667Z,94945
2018-06-09T18:47:00.356Z,94949
2018-06-09T18:51:56.978Z,94945.8
2018-06-09T18:56:53.551Z,94947.8
2018-06-09T19:01:49.962Z,94956.2
2018-06-09T19:06:46.794Z,94960.1
2018-06-09T19:11:43.033Z,94875.4
2018-06-09T19:16:39.883Z,94958.7
2018-06-09T19:21:35.791Z,94865.9
2018-06-09T19:26:32.228Z,94947
2018-06-09T19:31:28.683Z,94943.6
2018-06-09T19:36:25.231Z,94941.9
2018-06-09T19:41:21.895Z,94943.8
2018-06-09T19:46:18.488Z,94959.6
2018-06-09T19:51:15.561Z,94976.1
2018-06-09T19:56:11.816Z,94899.7
2018-06-09T20:01:08.306Z,94926.1
2018-06-09T20:06:04.590Z,95007.2
2018-06-09T20:11:01.426Z,95012.8
2018-06-09T20:15:57.763Z,95025.7
2018-06-09T20:20:54.200Z,95024.9
2018-06-09T20:25:50.956Z,95028.6
2018-06-09T20:30:47.772Z,95021.9
2018-06-09T20:35:44.450Z,95025.3
2018-06-09T20:40:41.026Z,94936.5
2018-06-09T20:45:37.650Z,95011.8
2018-06-09T20:50:34.133Z,95021.4
2018-06-09T20:55:31.133Z,94940.5
2018-06-09T21:00:27.481Z,95015.8
2018-06-09T21:05:24.278Z,95004.9
2018-06-09T21:10:20.635Z,94906.5
2018-06-09T21:15:17.020Z,94899.6
2018-06-09T21:20:13.328Z,94979.5
2018-06-09T21:25:10.013Z,94880.1
2018-06-09T21:30:05.897Z,94966.9
2018-06-09T21:35:02.270Z,94975
2018-06-09T21:39:58.937Z,94968.5
2018-06-09T21:44:55.642Z,94976.5
2018-06-09T21:49:52.379Z,94978.8
2018-06-09T21:54:49.070Z,94966.4
2018-06-09T21:59:45.738Z,94965.7
2018-06-09T22:04:42.454Z,94952.8
2018-06-09T22:09:39.074Z,94958.4
2018-06-09T22:14:35.801Z,94867.4
2018-06-09T22:19:32.489Z,94948.1
2018-06-09T22:24:28.881Z,94940.4
2018-06-09T22:29:25.183Z,94849.2
2018-06-09T22:34:21.818Z,94922.8
2018-06-09T22:39:18.290Z,94918.2
2018-06-09T22:44:15.005Z,94823.6
2018-06-09T22:49:11.692Z,94920.7
2018-06-09T22:54:08.362Z,94836.1
2018-06-09T22:59:04.569Z,94845.2
2018-06-09T23:04:01.154Z,94842.6
2018-06-09T23:08:57.596Z,94936.8
2018-06-09T23:13:54.268Z,94853.9
2018-06-09T23:18:50.484Z,94861.5
2018-06-09T23:23:47.059Z,94856
2018-06-09T23:28:43.646Z,94931.3
2018-06-09T23:33:40.182Z,94847.8
2018-06-09T23:38:36.912Z,94928.5
2018-06-09T23:43:33.408Z,94928.8
2018-06-09T23:48:29.885Z,94763.7
2018-06-09T23:53:26.493Z,94837.7
2018-06-09T23:58:23.318Z,94935
